createdAt,value
2018-05-17T00:04:17.763Z,5.13
2018-05-17T00:08:19.041Z,4.66
2018-05-17T00:14:20.327Z,4.86
2018-05-17T00:18:21.612Z,4.49
2018-05-17T00:20:22.845Z,5.36
2018-05-17T00:24:24.092Z,5.58
2018-05-17T00:30:25.491Z,5.85
2018-05-17T00:34:26.688Z,5.27
2018-05-17T00:40:28.178Z,6.84
2018-05-17T00:44:29.898Z,6.25
2018-05-17T00:46:30.373Z,7.13
2018-05-17T00:50:30.869Z,8.56
2018-05-17T00:56:31.480Z,8.91
2018-05-17T01:00:32.438Z,9.7
2018-05-17T01:06:32.876Z,7.88
2018-05-17T01:10:33.465Z,8.23
2018-05-17T01:12:33.966Z,9.77
2018-05-17T01:16:34.439Z,9.78
2018-05-17T01:22:35.045Z,5.7
2018-05-17T01:26:35.573Z,6.13
2018-05-17T01:32:36.009Z,5.48
2018-05-17T01:36:36.521Z,5.86
2018-05-17T01:38:37.009Z,4.44
2018-05-17T01:42:37.524Z,6.1
2018-05-17T01:48:38.051Z,5.1
2018-05-17T01:52:38.524Z,6.09
2018-05-17T01:58:39.125Z,4.68
2018-05-17T02:04:39.579Z,5.03
2018-05-17T02:08:40.053Z,4.95
2018-05-17T02:14:40.533Z,3.71
2018-05-17T02:18:41.140Z,4.68
2018-05-17T02:24:41.696Z,3.94
2018-05-17T02:30:42.320Z,4.59
2018-05-17T02:34:42.827Z,4.37
2018-05-17T02:40:43.418Z,3.27
2018-05-17T02:44:43.973Z,3.47
2018-05-17T02:46:44.417Z,5.01
2018-05-17T02:50:44.918Z,4.78
2018-05-17T02:56:45.439Z,3.36
2018-05-17T03:00:46.007Z,4.2
2018-05-17T03:06:46.499Z,6.88
2018-05-17T03:10:47.108Z,7.74
2018-05-17T03:12:47.598Z,5.47
2018-05-17T03:16:48.173Z,4.25
2018-05-17T03:22:48.644Z,5.04
2018-05-17T03:26:49.129Z,4.39
2018-05-17T03:32:49.618Z,4.29
2018-05-17T03:36:50.111Z,4.73
2018-05-17T03:38:50.603Z,5.22
2018-05-17T03:42:51.148Z,6.37
2018-05-17T03:48:51.693Z,3.54
2018-05-17T03:52:52.145Z,4.91
2018-05-17T03:58:52.690Z,4.04
2018-05-17T04:04:53.200Z,3.83
2018-05-17T04:08:53.703Z,5.26
2018-05-17T04:14:54.130Z,4.83
2018-05-17T04:18:54.785Z,7.26
2018-05-17T04:24:55.286Z,5.08
2018-05-17T04:30:55.812Z,4.54
2018-05-17T04:34:56.386Z,4.23
2018-05-17T04:40:57.129Z,4.86
2018-05-17T04:44:57.668Z,4.81
2018-05-17T04:46:58.469Z,4.33
2018-05-17T04:50:58.822Z,5.47
2018-05-17T04:56:59.329Z,5.08
2018-05-17T05:00:59.871Z,5.65
2018-05-17T05:07:00.447Z,4.97
2018-05-17T05:11:00.864Z,6.54
2018-05-17T05:13:01.462Z,4.59
2018-05-17T05:17:01.981Z,7.43
2018-05-17T05:23:02.469Z,8.43
2018-05-17T05:27:02.926Z,8.36
2018-05-17T05:33:03.425Z,5.29
2018-05-17T05:37:04.113Z,5.77
2018-05-17T05:39:04.587Z,6.03
2018-05-17T05:43:05.166Z,6.32
2018-05-17T05:49:05.645Z,7.39
2018-05-17T05:53:06.193Z,6.39
2018-05-17T05:59:06.986Z,5.41
2018-05-17T06:05:07.420Z,6.82
2018-05-17T06:09:08.000Z,6.05
2018-05-17T06:15:08.888Z,9.49
2018-05-17T06:19:09.524Z,8.2
2018-05-17T06:25:10.040Z,8.6
2018-05-17T06:31:10.620Z,9.72
2018-05-17T06:35:11.094Z,10.24
2018-05-17T06:41:11.660Z,7.51
2018-05-17T06:45:12.543Z,8.18
2018-05-17T06:51:13.101Z,10.13
2018-05-17T06:57:13.617Z,9.97
2018-05-17T07:01:14.165Z,11.04
2018-05-17T07:07:14.704Z,7.77
2018-05-17T07:11:15.221Z,8.2
2018-05-17T07:13:15.663Z,7.18
2018-05-17T07:17:16.156Z,7.69
2018-05-17T07:23:16.779Z,9.58
2018-05-17T07:27:17.389Z,9.59
2018-05-17T07:33:17.901Z,11.35
2018-05-17T07:37:18.421Z,11.34
2018-05-17T07:39:18.975Z,6.82
2018-05-17T07:43:19.427Z,9.18
2018-05-17T07:49:19.920Z,7.09
2018-05-17T07:53:20.417Z,9.3
2018-05-17T07:59:20.983Z,5.86
2018-05-17T08:05:21.615Z,6.86
2018-05-17T08:09:22.214Z,8.23
2018-05-17T08:15:23.033Z,7.43
2018-05-17T08:19:23.576Z,8.07
2018-05-17T08:25:24.150Z,6.65
2018-05-17T08:31:24.603Z,5.29
2018-05-17T08:35:25.230Z,5.72
2018-05-17T08:41:25.776Z,6.55
2018-05-17T08:45:26.794Z,5.72
2018-05-17T08:51:27.334Z,6.36
2018-05-17T08:57:27.835Z,4.6
2018-05-17T09:01:28.390Z,5.91
2018-05-17T09:07:28.929Z,6.92
2018-05-17T09:11:29.490Z,4.97
2018-05-17T09:13:30.104Z,5.66
2018-05-17T09:17:30.495Z,6.22
2018-05-17T09:23:30.998Z,5.12
2018-05-17T09:27:31.570Z,5.75
2018-05-17T09:33:32.202Z,5.97
2018-05-17T09:37:32.672Z,7.6
2018-05-17T09:39:33.100Z,5.66
2018-05-17T09:43:33.630Z,5.75
2018-05-17T09:49:34.210Z,7.85
2018-05-17T09:53:34.655Z,5.12
2018-05-17T09:59:36.009Z,7.95
2018-05-17T10:05:36.726Z,7.03
2018-05-17T10:09:37.190Z,6.84
2018-05-17T10:15:37.787Z,6.56
2018-05-17T10:19:38.281Z,6.85
2018-05-17T10:25:38.995Z,7.5
2018-05-17T10:31:39.472Z,6.58
2018-05-17T10:35:40.094Z,5.7
2018-05-17T10:41:40.665Z,7.32
2018-05-17T10:45:41.185Z,6.12
2018-05-17T10:47:41.777Z,5.34
2018-05-17T10:51:42.311Z,6.7
2018-05-17T10:57:42.907Z,5.5
2018-05-17T11:01:43.368Z,5.35
2018-05-17T11:07:43.925Z,5.15
2018-05-17T11:13:45.843Z,4.83
2018-05-17T11:13:45.978Z,5.91
2018-05-17T11:17:46.480Z,4.77
2018-05-17T11:23:47.170Z,4.32
2018-05-17T11:27:47.724Z,4.3
2018-05-17T11:33:48.262Z,4.49
2018-05-17T11:37:48.800Z,4.65
2018-05-17T11:39:49.228Z,5.7
2018-05-17T11:43:49.728Z,5.6
2018-05-17T11:49:50.643Z,6.57
2018-05-17T11:53:51.355Z,7.08
2018-05-17T11:59:51.969Z,5
2018-05-17T12:05:52.559Z,4.79
2018-05-17T12:09:53.063Z,6.34
2018-05-17T12:15:53.559Z,4.07
2018-05-17T12:19:54.096Z,4.14
2018-05-17T12:25:54.608Z,5.81
2018-05-17T12:31:55.277Z,5.22
2018-05-17T12:35:55.666Z,6.3
2018-05-17T12:41:56.191Z,6.78
2018-05-17T12:45:56.903Z,6.61
2018-05-17T12:47:57.396Z,5.07
2018-05-17T12:51:57.865Z,4.8
2018-05-17T12:57:58.448Z,4.57
2018-05-17T13:01:58.995Z,5.95
2018-05-17T13:07:59.515Z,4.83
2018-05-17T13:12:00.027Z,5.46
2018-05-17T13:14:00.604Z,4.48
2018-05-17T13:18:01.175Z,4.78
2018-05-17T13:24:01.731Z,6.26
2018-05-17T13:28:02.264Z,4.82
2018-05-17T13:34:02.704Z,5.41
2018-05-17T13:38:03.277Z,5.6
2018-05-17T13:40:03.889Z,5.55
2018-05-17T13:44:04.458Z,4.55
2018-05-17T13:50:04.935Z,3.76
2018-05-17T13:54:05.405Z,4.09
2018-05-17T14:00:06.115Z,4.76
2018-05-17T14:06:06.549Z,4.49
2018-05-17T14:10:07.155Z,5.58
2018-05-17T14:16:07.657Z,3.91
2018-05-17T14:20:08.253Z,3.97
2018-05-17T14:26:08.784Z,5.36
2018-05-17T14:32:09.378Z,4.45
2018-05-17T14:36:09.924Z,3.89
2018-05-17T14:42:10.481Z,4.95
2018-05-17T14:46:11.064Z,5.06
2018-05-17T14:48:11.582Z,4.15
2018-05-17T14:52:12.206Z,4.95
2018-05-17T14:58:12.786Z,4.64
2018-05-17T15:02:13.344Z,4.84
2018-05-17T15:08:13.911Z,5.24
2018-05-17T15:12:14.328Z,3.67
2018-05-17T15:14:14.848Z,4.4
2018-05-17T15:18:15.445Z,4.52
2018-05-17T15:24:15.993Z,3.96
2018-05-17T15:28:16.424Z,4.29
2018-05-17T15:34:17.020Z,3.57
2018-05-17T15:40:17.609Z,5.71
2018-05-17T15:44:18.271Z,3.11
2018-05-17T15:50:18.779Z,4.49
2018-05-17T15:54:19.292Z,3.59
2018-05-17T16:00:20.155Z,4.04
2018-05-17T16:06:20.702Z,5.47
2018-05-17T16:10:21.212Z,4.13
2018-05-17T16:16:21.758Z,5.2
2018-05-17T16:20:22.421Z,4.44
2018-05-17T16:26:23.006Z,4.26
2018-05-17T16:32:23.711Z,5.11
2018-05-17T16:36:24.247Z,3.86
2018-05-17T16:42:24.802Z,4.18
2018-05-17T16:48:27.072Z,4.1
2018-05-17T16:48:27.213Z,4.37
2018-05-17T16:52:27.705Z,4.27
2018-05-17T16:58:28.378Z,5.9
2018-05-17T17:02:28.995Z,4.79
2018-05-17T17:08:29.478Z,5.26
2018-05-17T17:12:30.049Z,4.83
2018-05-17T17:14:30.518Z,4.33
2018-05-17T17:18:31.348Z,3.67
2018-05-17T17:24:32.032Z,5.24
2018-05-17T17:28:32.751Z,4.59
2018-05-17T17:34:33.305Z,5.06
2018-05-17T17:40:33.854Z,3.84
2018-05-17T17:44:34.338Z,4.5
2018-05-17T17:50:34.927Z,4.36
2018-05-17T17:54:35.516Z,5.97
2018-05-17T18:00:36.144Z,4.32
2018-05-17T18:06:36.678Z,5.13
2018-05-17T18:10:37.217Z,4.59
2018-05-17T18:16:37.790Z,5.07
2018-05-17T18:20:38.348Z,5.34
2018-05-17T18:26:38.936Z,4.23
2018-05-17T18:32:39.748Z,5.27
2018-05-17T18:36:40.315Z,4.7
2018-05-17T18:42:40.820Z,3.94
2018-05-17T18:46:41.375Z,5.55
2018-05-17T18:48:41.839Z,5.36
2018-05-17T18:52:42.357Z,5.56
2018-05-17T18:58:42.999Z,5.89
2018-05-17T19:02:43.548Z,4.71
2018-05-17T19:08:44.170Z,5.12
2018-05-17T19:12:44.653Z,7.68
2018-05-17T19:14:45.115Z,6.66
2018-05-17T19:18:45.671Z,6.15
2018-05-17T19:24:46.317Z,5.17
2018-05-17T19:28:46.987Z,4.12
2018-05-17T19:34:47.401Z,4.3
2018-05-17T19:40:47.908Z,5.11
2018-05-17T19:44:48.537Z,4.85
2018-05-17T19:50:49.055Z,4.71
2018-05-17T19:54:49.574Z,4.53
2018-05-17T20:00:50.207Z,6.01
2018-05-17T20:06:50.846Z,5.46
2018-05-17T20:10:51.419Z,5.49
2018-05-17T20:16:52.094Z,3.98
2018-05-17T20:20:52.579Z,5.09
2018-05-17T20:26:53.112Z,6.39
2018-05-17T20:32:53.671Z,5.69
2018-05-17T20:36:54.247Z,4.9
2018-05-17T20:42:54.809Z,5.55
2018-05-17T20:46:55.411Z,5.71
2018-05-17T20:48:55.903Z,5.74
2018-05-17T20:52:56.444Z,6.7
2018-05-17T20:58:57.277Z,5.3
2018-05-17T21:02:57.773Z,5.38
2018-05-17T21:08:58.338Z,5.79
2018-05-17T21:12:58.822Z,6.56
2018-05-17T21:14:59.289Z,6.23
2018-05-17T21:18:59.894Z,6.2
2018-05-17T21:25:00.416Z,7.64
2018-05-17T21:29:00.923Z,6.95
2018-05-17T21:35:01.636Z,7.12
2018-05-17T21:41:02.187Z,6.72
2018-05-17T21:45:02.913Z,7.1
2018-05-17T21:51:03.409Z,5.46
2018-05-17T21:55:03.929Z,7.24
2018-05-17T22:01:04.526Z,7.43
2018-05-17T22:07:05.100Z,7.23
2018-05-17T22:11:05.727Z,7.37
2018-05-17T22:17:06.296Z,6.63
2018-05-17T22:21:06.784Z,6.94
2018-05-17T22:27:07.296Z,6.92
2018-05-17T22:33:07.789Z,5.84
2018-05-17T22:37:08.355Z,7.27
2018-05-17T22:43:08.961Z,5.38
2018-05-17T22:47:09.500Z,7.06
2018-05-17T22:49:09.983Z,8.1
2018-05-17T22:53:10.490Z,8.39
2018-05-17T22:59:11.032Z,7.09
2018-05-17T23:03:11.540Z,7.16
2018-05-17T23:09:12.155Z,7.07
2018-05-17T23:13:12.665Z,5.56
2018-05-17T23:15:13.532Z,7.01
2018-05-17T23:19:14.035Z,6.46
2018-05-17T23:25:14.521Z,6.72
2018-05-17T23:29:15.016Z,6.8
2018-05-17T23:35:15.652Z,5.7
2018-05-17T23:41:16.249Z,6.01
2018-05-17T23:45:17.353Z,6.77
2018-05-17T23:51:18.102Z,6.86
2018-05-17T23:55:18.514Z,6.97
